createdAt,value
2018-12-15T00:02:21.470Z,2.50
2018-12-15T00:04:49.917Z,2.50
2018-12-15T00:07:18.417Z,2.40
2018-12-15T00:09:46.810Z,2.50
2018-12-15T00:12:15.335Z,2.50
2018-12-15T00:14:44.221Z,2.60
2018-12-15T00:17:12.765Z,2.70
2018-12-15T00:19:41.506Z,2.60
2018-12-15T00:22:10.006Z,2.60
2018-12-15T00:24:38.279Z,2.60
2018-12-15T00:27:06.643Z,2.70
2018-12-15T00:29:34.888Z,2.70
2018-12-15T00:32:03.161Z,2.80
2018-12-15T00:34:31.538Z,2.70
2018-12-15T00:36:59.782Z,2.60
2018-12-15T00:39:28.079Z,2.60
2018-12-15T00:41:56.317Z,2.50
2018-12-15T00:44:24.525Z,2.50
2018-12-15T00:46:52.769Z,2.60
2018-12-15T00:49:21.056Z,2.70
2018-12-15T00:51:49.343Z,2.60
2018-12-15T00:54:17.605Z,2.50
2018-12-15T00:56:45.888Z,2.40
2018-12-15T00:59:14.110Z,2.30
2018-12-15T01:01:42.478Z,2.30
2018-12-15T01:04:10.745Z,2.10
2018-12-15T01:06:39.233Z,2.30
2018-12-15T01:09:07.552Z,2.40
2018-12-15T01:11:35.803Z,2.30
2018-12-15T01:14:04.135Z,2.30
2018-12-15T01:16:32.395Z,2.30
2018-12-15T01:19:00.708Z,2.30
2018-12-15T01:21:28.991Z,2.40
2018-12-15T01:23:57.250Z,2.60
2018-12-15T01:26:25.527Z,2.70
2018-12-15T01:28:53.841Z,2.80
2018-12-15T01:31:22.098Z,2.80
2018-12-15T01:33:50.511Z,2.80
2018-12-15T01:36:18.804Z,2.80
2018-12-15T01:38:47.117Z,2.80
2018-12-15T01:41:15.464Z,2.70
2018-12-15T01:43:43.765Z,2.70
2018-12-15T01:46:12.066Z,2.90
2018-12-15T01:48:40.309Z,2.90
2018-12-15T01:51:08.646Z,2.90
2018-12-15T01:53:37.057Z,2.80
2018-12-15T01:56:05.377Z,2.70
2018-12-15T01:58:33.589Z,2.70
2018-12-15T02:01:01.889Z,2.80
2018-12-15T02:03:30.278Z,2.70
2018-12-15T02:05:58.567Z,2.80
2018-12-15T02:08:27.022Z,2.60
2018-12-15T02:10:55.302Z,2.60
2018-12-15T02:13:23.521Z,2.60
2018-12-15T02:15:51.814Z,2.60
2018-12-15T02:18:20.213Z,2.60
2018-12-15T02:20:48.637Z,2.60
2018-12-15T02:23:17.075Z,2.60
2018-12-15T02:25:45.396Z,2.90
2018-12-15T02:28:13.673Z,2.70
2018-12-15T02:30:42.011Z,2.80
2018-12-15T02:33:10.590Z,2.80
2018-12-15T02:35:38.862Z,2.70
2018-12-15T02:38:07.196Z,2.50
2018-12-15T02:40:35.492Z,2.50
2018-12-15T02:43:03.796Z,2.50
2018-12-15T02:45:32.726Z,2.40
2018-12-15T02:48:00.940Z,2.50
2018-12-15T02:50:29.162Z,2.30
2018-12-15T02:52:57.488Z,2.10
2018-12-15T02:55:25.711Z,2.10
2018-12-15T02:57:53.971Z,2.20
2018-12-15T03:00:22.391Z,2.20
2018-12-15T03:02:50.668Z,2.10
2018-12-15T03:05:18.961Z,2.20
2018-12-15T03:07:47.288Z,2.10
2018-12-15T03:10:15.604Z,2.20
2018-12-15T03:12:43.968Z,2.30
2018-12-15T03:15:12.355Z,2.50
2018-12-15T03:17:40.593Z,2.70
2018-12-15T03:20:08.837Z,2.70
2018-12-15T03:22:37.198Z,2.60
2018-12-15T03:25:05.883Z,2.60
2018-12-15T03:27:34.101Z,2.80
2018-12-15T03:30:02.578Z,2.60
2018-12-15T03:32:30.849Z,2.60
2018-12-15T03:34:59.217Z,2.60
2018-12-15T03:37:27.488Z,2.50
2018-12-15T03:39:55.907Z,2.60
2018-12-15T03:42:24.157Z,2.70
2018-12-15T03:44:52.410Z,2.90
2018-12-15T03:47:20.707Z,2.60
2018-12-15T03:49:49.140Z,2.80
2018-12-15T03:52:17.367Z,3.00
2018-12-15T03:54:45.705Z,2.80
2018-12-15T03:57:13.963Z,2.80
2018-12-15T03:59:42.347Z,2.60
2018-12-15T04:02:10.740Z,2.60
2018-12-15T04:04:39.314Z,2.50
2018-12-15T04:07:07.760Z,2.50
2018-12-15T04:09:36.050Z,2.60
2018-12-15T04:12:04.327Z,2.70
2018-12-15T04:14:32.518Z,2.80
2018-12-15T04:17:00.778Z,2.70
2018-12-15T04:19:29.175Z,2.90
2018-12-15T04:22:08.846Z,3.00
2018-12-15T04:24:37.198Z,3.00
2018-12-15T04:27:05.558Z,3.20
2018-12-15T04:29:33.866Z,3.30
2018-12-15T04:32:02.118Z,3.40
2018-12-15T04:34:30.356Z,3.30
2018-12-15T04:36:58.673Z,3.10
2018-12-15T04:39:26.914Z,3.20
2018-12-15T04:41:55.116Z,3.00
2018-12-15T04:44:23.426Z,2.90
2018-12-15T04:46:52.009Z,3.10
2018-12-15T04:49:20.806Z,3.10
2018-12-15T04:51:49.197Z,3.00
2018-12-15T04:54:17.516Z,2.90
2018-12-15T04:56:45.801Z,2.90
2018-12-15T04:59:14.212Z,2.90
2018-12-15T05:01:42.475Z,3.00
2018-12-15T05:04:10.671Z,3.00
2018-12-15T05:06:39.015Z,3.00
2018-12-15T05:09:07.289Z,2.90
2018-12-15T05:11:35.613Z,2.90
2018-12-15T05:14:03.991Z,2.80
2018-12-15T05:16:32.380Z,2.90
2018-12-15T05:19:00.739Z,2.90
2018-12-15T05:21:28.949Z,3.10
2018-12-15T05:23:57.198Z,3.20
2018-12-15T05:26:25.505Z,3.20
2018-12-15T05:28:53.790Z,3.20
2018-12-15T05:31:22.048Z,3.20
2018-12-15T05:33:50.271Z,3.20
2018-12-15T05:36:18.588Z,3.30
2018-12-15T05:38:46.909Z,3.20
2018-12-15T05:41:15.178Z,3.00
2018-12-15T05:43:43.472Z,3.10
2018-12-15T05:46:11.903Z,3.10
2018-12-15T05:48:40.130Z,3.00
2018-12-15T05:51:08.478Z,3.00
2018-12-15T05:53:36.720Z,2.90
2018-12-15T05:56:04.927Z,2.70
2018-12-15T05:58:33.224Z,2.60
2018-12-15T06:01:01.453Z,2.60
2018-12-15T06:03:29.712Z,2.60
2018-12-15T06:05:57.975Z,2.60
2018-12-15T06:08:26.252Z,2.70
2018-12-15T06:10:54.585Z,2.80
2018-12-15T06:13:22.824Z,2.90
2018-12-15T06:15:51.178Z,2.90
2018-12-15T06:18:19.392Z,3.00
2018-12-15T06:20:47.631Z,3.10
2018-12-15T06:23:15.904Z,3.20
2018-12-15T06:25:44.140Z,3.20
2018-12-15T06:28:12.451Z,3.20
2018-12-15T06:30:40.934Z,3.20
2018-12-15T06:33:09.179Z,3.20
2018-12-15T06:35:37.527Z,3.10
2018-12-15T06:38:06.518Z,3.00
2018-12-15T06:40:34.730Z,3.00
2018-12-15T06:43:03.072Z,2.80
2018-12-15T06:45:31.421Z,2.90
2018-12-15T06:47:59.660Z,3.10
2018-12-15T06:50:27.967Z,3.20
2018-12-15T06:52:56.344Z,3.20
2018-12-15T06:55:24.552Z,3.30
2018-12-15T06:57:52.786Z,3.30
2018-12-15T07:00:21.156Z,3.30
2018-12-15T07:02:49.379Z,3.20
2018-12-15T07:05:17.847Z,3.30
2018-12-15T07:07:46.089Z,2.90
2018-12-15T07:10:14.338Z,2.70
2018-12-15T07:12:42.637Z,2.60
2018-12-15T07:15:10.905Z,2.60
2018-12-15T07:17:39.310Z,2.70
2018-12-15T07:20:07.744Z,2.90
2018-12-15T07:22:36.072Z,2.80
2018-12-15T07:25:04.648Z,2.80
2018-12-15T07:27:32.965Z,2.90
2018-12-15T07:30:01.258Z,3.00
2018-12-15T07:32:29.672Z,3.00
2018-12-15T07:35:00.908Z,2.90
2018-12-15T07:37:28.632Z,2.70
2018-12-15T07:39:57.095Z,2.80
2018-12-15T07:42:25.472Z,2.80
2018-12-15T07:44:53.812Z,2.70
2018-12-15T07:47:22.224Z,2.70
2018-12-15T07:49:50.517Z,2.90
2018-12-15T07:52:18.882Z,3.10
2018-12-15T07:54:47.157Z,2.90
2018-12-15T07:57:15.378Z,3.00
2018-12-15T07:59:43.616Z,2.90
2018-12-15T08:02:12.014Z,2.90
2018-12-15T08:04:40.234Z,3.00
2018-12-15T08:07:08.677Z,3.20
2018-12-15T08:09:37.480Z,3.10
2018-12-15T08:12:11.272Z,3.10
2018-12-15T08:14:39.929Z,3.20
2018-12-15T08:17:08.234Z,3.00
2018-12-15T08:19:36.465Z,3.00
2018-12-15T08:22:05.009Z,3.30
2018-12-15T08:24:33.307Z,3.40
2018-12-15T08:27:01.539Z,3.30
2018-12-15T08:29:29.949Z,3.20
2018-12-15T08:31:58.516Z,3.10
2018-12-15T08:34:26.774Z,3.30
2018-12-15T08:36:55.131Z,3.50
2018-12-15T08:39:23.645Z,3.60
2018-12-15T08:41:51.975Z,3.50
2018-12-15T08:44:20.328Z,3.60
2018-12-15T08:46:48.681Z,3.70
2018-12-15T08:49:16.993Z,3.80
2018-12-15T08:51:45.258Z,3.70
2018-12-15T08:54:13.526Z,3.60
2018-12-15T08:56:41.901Z,3.60
2018-12-15T08:59:10.529Z,3.50
2018-12-15T09:01:38.755Z,3.50
2018-12-15T09:04:07.028Z,3.60
2018-12-15T09:06:35.418Z,3.50
2018-12-15T09:09:06.177Z,3.50
2018-12-15T09:11:34.522Z,3.70
2018-12-15T09:14:02.912Z,3.90
2018-12-15T09:16:31.214Z,4.00
2018-12-15T09:18:59.523Z,3.80
2018-12-15T09:21:27.816Z,4.00
2018-12-15T09:23:56.198Z,4.10
2018-12-15T09:26:24.565Z,4.20
2018-12-15T09:28:52.882Z,4.20
2018-12-15T09:31:21.264Z,4.10
2018-12-15T09:33:49.487Z,4.10
2018-12-15T09:36:17.887Z,4.00
2018-12-15T09:38:46.217Z,3.80
2018-12-15T09:41:14.512Z,3.90
2018-12-15T09:43:42.995Z,3.90
2018-12-15T09:46:11.404Z,3.90
2018-12-15T09:48:39.769Z,3.80
2018-12-15T09:51:08.040Z,4.00
2018-12-15T09:53:36.337Z,3.90
2018-12-15T09:56:04.761Z,3.90
2018-12-15T09:58:33.025Z,3.80
2018-12-15T10:01:01.444Z,3.90
2018-12-15T10:03:29.973Z,3.90
2018-12-15T10:05:58.375Z,4.10
2018-12-15T10:08:26.775Z,3.80
2018-12-15T10:10:55.056Z,3.80
2018-12-15T10:13:23.512Z,3.70
2018-12-15T10:15:51.859Z,3.60
2018-12-15T10:18:20.110Z,3.70
2018-12-15T10:20:48.331Z,3.80
2018-12-15T10:23:16.718Z,3.70
2018-12-15T10:25:45.065Z,3.70
2018-12-15T10:28:13.335Z,3.60
2018-12-15T10:30:47.171Z,3.40
2018-12-15T10:33:15.449Z,3.50
2018-12-15T10:35:43.725Z,3.60
2018-12-15T10:38:12.035Z,3.60
2018-12-15T10:40:40.290Z,3.50
2018-12-15T10:43:08.557Z,3.50
2018-12-15T10:45:36.911Z,3.50
2018-12-15T10:48:05.299Z,3.80
2018-12-15T10:57:19.591Z,3.80
2018-12-15T10:59:48.025Z,3.90
2018-12-15T11:02:16.492Z,3.80
2018-12-15T11:04:44.810Z,3.90
2018-12-15T11:07:13.074Z,3.90
2018-12-15T11:09:41.343Z,3.70
2018-12-15T11:12:09.712Z,3.60
2018-12-15T11:14:38.230Z,3.60
2018-12-15T11:17:06.623Z,3.50
2018-12-15T11:19:37.294Z,3.70
2018-12-15T11:22:05.162Z,3.90
2018-12-15T11:24:33.449Z,4.00
2018-12-15T11:27:01.837Z,4.10
2018-12-15T11:29:30.177Z,4.20
2018-12-15T11:31:58.515Z,4.30
2018-12-15T11:34:26.811Z,4.50
2018-12-15T11:36:55.194Z,4.60
2018-12-15T11:39:23.603Z,4.70
2018-12-15T11:41:51.956Z,4.80
2018-12-15T11:44:20.175Z,4.80
2018-12-15T11:46:48.638Z,4.80
2018-12-15T11:49:17.067Z,4.60
2018-12-15T11:51:45.403Z,4.50
2018-12-15T11:54:13.722Z,4.30
2018-12-15T11:56:42.181Z,4.00
2018-12-15T11:59:10.401Z,4.00
2018-12-15T12:01:38.776Z,4.10
2018-12-15T12:04:07.104Z,4.30
2018-12-15T12:06:35.439Z,4.30
2018-12-15T12:09:05.216Z,4.30
2018-12-15T12:11:33.726Z,4.40
2018-12-15T12:14:02.041Z,4.10
2018-12-15T12:16:30.410Z,4.20
2018-12-15T12:18:58.731Z,4.20
2018-12-15T12:21:27.068Z,4.20
2018-12-15T12:23:55.434Z,4.30
2018-12-15T12:26:23.753Z,4.10
2018-12-15T12:28:51.978Z,4.00
2018-12-15T12:31:20.442Z,3.70
2018-12-15T12:33:48.791Z,3.70
2018-12-15T12:36:17.250Z,3.70
2018-12-15T12:38:45.681Z,3.60
2018-12-15T12:41:14.002Z,3.70
2018-12-15T12:43:42.320Z,3.90
2018-12-15T12:46:10.648Z,4.10
2018-12-15T12:48:38.965Z,4.40
2018-12-15T12:51:07.489Z,4.50
2018-12-15T12:53:35.878Z,4.60
2018-12-15T12:56:04.717Z,4.50
2018-12-15T12:58:32.967Z,4.60
2018-12-15T13:01:01.287Z,4.80
2018-12-15T13:03:29.607Z,4.90
2018-12-15T13:05:57.921Z,4.80
2018-12-15T13:08:26.137Z,4.80
2018-12-15T13:10:55.196Z,4.50
2018-12-15T13:13:23.538Z,4.40
2018-12-15T13:15:52.566Z,4.40
2018-12-15T13:18:20.823Z,4.00
2018-12-15T13:20:49.142Z,3.90
2018-12-15T13:23:17.582Z,4.10
2018-12-15T13:25:45.880Z,4.00
2018-12-15T13:28:14.105Z,4.00
2018-12-15T13:30:42.429Z,4.10
2018-12-15T13:33:22.295Z,4.30
2018-12-15T13:35:50.592Z,4.50
2018-12-15T13:38:18.866Z,4.60
2018-12-15T13:40:47.229Z,4.60
2018-12-15T13:43:15.442Z,4.80
2018-12-15T13:45:44.047Z,4.50
2018-12-15T13:48:12.347Z,4.30
2018-12-15T13:50:40.602Z,4.30
2018-12-15T13:53:08.903Z,4.30
2018-12-15T13:55:37.440Z,4.20
2018-12-15T13:58:05.707Z,4.30
2018-12-15T14:00:33.985Z,4.30
2018-12-15T14:03:02.217Z,4.10
2018-12-15T14:05:30.544Z,4.00
2018-12-15T14:07:58.845Z,4.10
2018-12-15T14:10:27.133Z,4.30
2018-12-15T14:12:55.505Z,4.20
2018-12-15T14:15:23.906Z,4.20
2018-12-15T14:17:52.323Z,4.40
2018-12-15T14:20:20.665Z,4.20
2018-12-15T14:22:49.003Z,4.10
2018-12-15T14:25:17.437Z,4.10
2018-12-15T14:27:45.664Z,4.10
2018-12-15T14:30:13.953Z,4.10
2018-12-15T14:32:42.230Z,4.00
2018-12-15T14:35:10.618Z,4.10
2018-12-15T14:37:38.865Z,4.30
2018-12-15T14:40:07.235Z,4.30
2018-12-15T14:42:35.666Z,4.50
2018-12-15T14:45:04.077Z,4.50
2018-12-15T14:47:33.423Z,4.40
2018-12-15T14:50:01.750Z,4.30
2018-12-15T14:52:30.035Z,4.40
2018-12-15T14:54:58.359Z,4.40
2018-12-15T14:57:26.631Z,4.30
2018-12-15T14:59:55.027Z,4.10
2018-12-15T15:02:23.223Z,3.90
2018-12-15T15:04:51.591Z,3.80
2018-12-15T15:07:20.283Z,3.70
2018-12-15T15:09:48.707Z,3.70
2018-12-15T15:12:17.082Z,3.80
2018-12-15T15:14:45.323Z,3.80
2018-12-15T15:17:13.847Z,3.80
2018-12-15T15:19:42.112Z,3.80
2018-12-15T15:22:10.632Z,3.60
2018-12-15T15:24:38.948Z,3.80
2018-12-15T15:27:07.765Z,3.60
2018-12-15T15:29:36.136Z,3.60
2018-12-15T15:32:04.607Z,3.60
2018-12-15T15:34:33.095Z,3.30
2018-12-15T15:37:01.571Z,3.40
2018-12-15T15:39:29.988Z,3.40
2018-12-15T15:41:58.491Z,3.40
2018-12-15T15:44:26.793Z,3.50
2018-12-15T15:46:55.189Z,3.80
2018-12-15T15:49:23.660Z,3.90
2018-12-15T15:51:51.968Z,4.00
2018-12-15T15:54:20.289Z,4.10
2018-12-15T15:56:48.730Z,4.00
2018-12-15T15:59:17.161Z,3.90
2018-12-15T16:01:45.429Z,3.80
2018-12-15T16:04:13.718Z,3.90
2018-12-15T16:06:43.257Z,4.00
2018-12-15T16:09:11.608Z,4.10
2018-12-15T16:11:40.012Z,3.90
2018-12-15T16:14:08.282Z,3.90
2018-12-15T16:16:36.694Z,3.90
2018-12-15T16:19:05.088Z,3.90
2018-12-15T16:21:34.239Z,3.80
2018-12-15T16:24:02.634Z,3.90
2018-12-15T16:26:30.885Z,3.80
2018-12-15T16:28:59.204Z,3.90
2018-12-15T16:31:27.453Z,3.80
2018-12-15T16:33:55.707Z,3.90
2018-12-15T16:36:24.182Z,3.60
2018-12-15T16:38:54.204Z,3.50
2018-12-15T16:41:22.574Z,3.40
2018-12-15T16:43:50.852Z,3.50
2018-12-15T16:46:19.269Z,3.50
2018-12-15T16:48:47.551Z,3.60
2018-12-15T16:51:15.897Z,3.60
2018-12-15T16:53:44.276Z,3.90
2018-12-15T16:56:12.514Z,3.80
2018-12-15T16:58:40.863Z,3.80
2018-12-15T17:01:09.372Z,3.70
2018-12-15T17:03:37.647Z,3.60
2018-12-15T17:06:06.047Z,3.60
2018-12-15T17:08:34.688Z,3.60
2018-12-15T17:11:03.269Z,3.80
2018-12-15T17:13:31.627Z,3.60
2018-12-15T17:16:00.152Z,3.50
2018-12-15T17:18:28.429Z,3.60
2018-12-15T17:20:57.055Z,3.60
2018-12-15T17:23:25.539Z,3.70
2018-12-15T17:25:53.870Z,3.60
2018-12-15T17:28:22.282Z,3.60
2018-12-15T17:30:50.610Z,3.50
2018-12-15T17:33:18.863Z,3.60
2018-12-15T17:35:47.072Z,3.60
2018-12-15T17:38:15.399Z,3.50
2018-12-15T17:40:43.725Z,3.50
2018-12-15T17:43:12.136Z,3.50
2018-12-15T17:45:40.494Z,3.60
2018-12-15T17:48:08.771Z,3.50
2018-12-15T17:50:37.120Z,3.50
2018-12-15T17:53:05.387Z,3.40
2018-12-15T17:55:33.699Z,3.30
2018-12-15T17:58:02.057Z,3.40
2018-12-15T18:00:30.447Z,3.40
2018-12-15T18:02:58.931Z,3.60
2018-12-15T18:05:27.329Z,3.70
2018-12-15T18:07:55.596Z,3.80
2018-12-15T18:10:23.963Z,3.90
2018-12-15T18:12:52.336Z,3.80
2018-12-15T18:15:20.682Z,3.80
2018-12-15T18:17:48.904Z,3.70
2018-12-15T18:20:17.270Z,3.90
2018-12-15T18:22:45.592Z,3.80
2018-12-15T18:25:13.940Z,3.70
2018-12-15T18:27:42.239Z,3.80
2018-12-15T18:30:11.444Z,3.70
2018-12-15T18:32:39.993Z,3.70
2018-12-15T18:35:08.441Z,3.60
2018-12-15T18:37:36.842Z,3.70
2018-12-15T18:40:05.752Z,3.60
2018-12-15T18:42:34.181Z,3.60
2018-12-15T18:45:02.613Z,3.70
2018-12-15T18:47:31.009Z,3.50
2018-12-15T18:49:59.331Z,3.60
2018-12-15T18:52:27.858Z,3.80
2018-12-15T18:54:56.182Z,3.80
2018-12-15T18:57:24.525Z,3.70
2018-12-15T18:59:52.783Z,3.80
2018-12-15T19:02:21.178Z,3.70
2018-12-15T19:04:49.481Z,3.70
2018-12-15T19:07:17.897Z,3.60
2018-12-15T19:09:46.138Z,3.60
2018-12-15T19:12:14.638Z,3.60
2018-12-15T19:14:43.111Z,3.70
2018-12-15T19:17:11.394Z,3.80
2018-12-15T19:19:39.718Z,3.90
2018-12-15T19:22:08.158Z,3.90
2018-12-15T19:24:36.542Z,3.90
2018-12-15T19:27:04.991Z,3.90
2018-12-15T19:29:33.410Z,3.90
2018-12-15T19:32:01.737Z,4.00
2018-12-15T19:34:30.061Z,4.00
2018-12-15T19:36:58.341Z,3.90
2018-12-15T19:39:26.575Z,3.80
2018-12-15T19:41:54.885Z,3.70
2018-12-15T19:44:23.132Z,3.70
2018-12-15T19:46:51.457Z,3.70
2018-12-15T19:49:19.725Z,3.70
2018-12-15T19:51:48.040Z,3.60
2018-12-15T19:54:16.323Z,3.70
2018-12-15T19:56:44.697Z,3.70
2018-12-15T19:59:15.255Z,3.60
2018-12-15T20:01:44.034Z,3.60
2018-12-15T20:04:12.439Z,3.60
2018-12-15T20:06:40.872Z,3.70
2018-12-15T20:09:09.822Z,3.60
2018-12-15T20:11:38.321Z,3.70
2018-12-15T20:14:07.478Z,3.70
2018-12-15T20:16:35.806Z,3.60
2018-12-15T20:19:04.231Z,3.70
2018-12-15T20:23:01.768Z,3.80
2018-12-15T20:25:30.143Z,3.80
2018-12-15T20:27:58.436Z,3.70
2018-12-15T20:30:26.723Z,3.60
2018-12-15T20:32:54.946Z,3.60
2018-12-15T20:35:23.329Z,3.50
2018-12-15T20:37:51.555Z,3.50
2018-12-15T20:40:19.866Z,3.60
2018-12-15T20:42:48.368Z,3.50
2018-12-15T20:45:16.725Z,3.40
2018-12-15T20:47:44.947Z,3.20
2018-12-15T20:50:13.334Z,3.20
2018-12-15T20:52:47.390Z,3.20
2018-12-15T20:55:12.156Z,3.20
2018-12-15T20:57:40.449Z,2.90
2018-12-15T21:00:09.499Z,2.90
2018-12-15T21:02:37.841Z,3.00
2018-12-15T21:05:06.351Z,3.00
2018-12-15T21:07:34.711Z,3.00
2018-12-15T21:10:03.523Z,3.10
2018-12-15T21:12:31.919Z,3.10
2018-12-15T21:15:04.510Z,3.00
2018-12-15T21:17:32.735Z,3.20
2018-12-15T21:20:01.164Z,3.20
2018-12-15T21:22:29.403Z,3.30
2018-12-15T21:24:57.685Z,3.40
2018-12-15T21:27:25.995Z,3.60
2018-12-15T21:29:54.303Z,3.70
2018-12-15T21:32:22.676Z,3.50
2018-12-15T21:34:50.948Z,3.40
2018-12-15T21:37:19.375Z,3.40
2018-12-15T21:39:47.707Z,3.40
2018-12-15T21:42:16.063Z,3.60
2018-12-15T21:44:44.377Z,3.70
2018-12-15T21:47:12.755Z,3.60
2018-12-15T21:49:41.008Z,3.60
2018-12-15T21:52:09.373Z,3.60
2018-12-15T21:54:37.743Z,3.60
2018-12-15T21:57:06.135Z,3.70
2018-12-15T21:59:34.434Z,3.80
2018-12-15T22:02:02.689Z,3.80
2018-12-15T22:04:31.102Z,3.80
2018-12-15T22:06:59.295Z,3.90
2018-12-15T22:09:27.641Z,3.90
2018-12-15T22:11:57.269Z,3.70
2018-12-15T22:14:25.545Z,3.70
2018-12-15T22:16:53.866Z,3.80
2018-12-15T22:19:22.155Z,3.80
2018-12-15T22:21:50.606Z,3.80
2018-12-15T22:24:18.955Z,3.70
2018-12-15T22:26:47.505Z,3.80
2018-12-15T22:29:15.801Z,3.70
2018-12-15T22:31:45.203Z,3.80
2018-12-15T22:34:13.429Z,3.80
2018-12-15T22:36:41.684Z,3.70
2018-12-15T22:39:09.999Z,3.60
2018-12-15T22:41:38.318Z,3.70
2018-12-15T22:44:06.552Z,3.60
2018-12-15T22:46:35.399Z,3.40
2018-12-15T22:49:03.864Z,3.60
2018-12-15T22:51:32.243Z,3.80
2018-12-15T22:54:00.582Z,3.80
2018-12-15T22:56:28.894Z,3.80
2018-12-15T22:58:57.273Z,3.70
2018-12-15T23:01:25.713Z,3.90
2018-12-15T23:03:54.034Z,3.90
2018-12-15T23:06:22.281Z,4.00
2018-12-15T23:08:50.575Z,4.10
2018-12-15T23:11:18.867Z,4.00
2018-12-15T23:13:47.082Z,3.90
2018-12-15T23:16:15.351Z,4.00
2018-12-15T23:18:43.644Z,4.00
2018-12-15T23:21:12.026Z,4.10
2018-12-15T23:23:40.329Z,4.00
2018-12-15T23:26:08.628Z,4.00
2018-12-15T23:28:36.934Z,4.10
2018-12-15T23:31:05.343Z,3.90
2018-12-15T23:33:33.672Z,4.00
2018-12-15T23:36:02.160Z,3.90
2018-12-15T23:38:30.397Z,3.90
2018-12-15T23:40:58.761Z,4.00
2018-12-15T23:43:27.004Z,4.00
2018-12-15T23:45:55.320Z,3.90
2018-12-15T23:48:23.734Z,3.80
2018-12-15T23:50:51.979Z,3.80
2018-12-15T23:53:20.281Z,3.80
2018-12-15T23:55:48.499Z,3.90
2018-12-15T23:58:16.749Z,4.00
